Main page
METAR-TAF:

METAR-TAF

Airports :

Rajkot Airport

Rajkot, India

latitude: 22-18N, longitude: 070-47E, elevation: 134 m

Current weather observation

The report was made 35 minutes ago, at 00:00 UTC
Wind 6 kt from the West/Southwest
Temperature 25°C
Humidity 79%
Pressure 1009 hPa
Visibility: 6000 m

METAR: VARK 110000Z 25006KT 6000 NSC 25/21 Q1009

Time: 06:05 (00:35 UTC)

Forecast

The report was made 1 hour and 35 minutes ago, at 23:00 UTC
Forecast valid from 11 at 00 UTC to 11 at 09 UTC
Wind 6 kt from the Northwest
Visibility: 4000 m
smoke, haze
Becoming
from 10 at 01 UTC to 10 at 03 UTC
Wind 5 kt from the Northwest
Visibility: 2500 m
haze
Becoming
from 10 at 04 UTC to 10 at 06 UTC
Wind 5 kt from the West
Visibility: 4000 m
haze, smoke
Becoming
from 10 at 07 UTC to 10 at 09 UTC
Wind 9 kt from the West
Visibility: 5000 m
smoke

TAF: VARK 102300Z 1100/1109 31006KT 4000 FU HZ NSC BECMG 1001/1003 32005KT 2500 HZ BECMG 1004/1006 28005KT 4000 HZ FU BECMG 1007/1009 26009KT 5000 FU

Weather observations and forecasts of more than 4000 airports (METAR and TAF reports).

The available stations are represented by yellow and red dots on the map.

Hover mouse over dot to see the name of the station.

Then click to see weather observations and forecasts.

To change the map : click on the green buttons with a black cross to zoom in, on the green button with a dash to zoom out, or on the green arrows for adjacent maps.


METAR-TAF: